sensor_id;sensor_type;location;lat;lon;timestamp;temperature;humidity
38784;DHT22;24531;45.502;12.238;2023-04-08T00:00:35;13.20;78.20
38784;DHT22;24531;45.502;12.238;2023-04-08T00:03:01;13.20;78.10
38784;DHT22;24531;45.502;12.238;2023-04-08T00:05:27;13.10;78.00
38784;DHT22;24531;45.502;12.238;2023-04-08T00:07:53;13.10;78.20
38784;DHT22;24531;45.502;12.238;2023-04-08T00:10:19;13.10;78.30
38784;DHT22;24531;45.502;12.238;2023-04-08T00:12:45;13.10;78.40
38784;DHT22;24531;45.502;12.238;2023-04-08T00:15:11;13.00;78.30
38784;DHT22;24531;45.502;12.238;2023-04-08T00:17:37;13.00;78.40
38784;DHT22;24531;45.502;12.238;2023-04-08T00:20:03;13.00;78.40
38784;DHT22;24531;45.502;12.238;2023-04-08T00:22:29;13.00;78.30
38784;DHT22;24531;45.502;12.238;2023-04-08T00:24:55;13.00;78.40
38784;DHT22;24531;45.502;12.238;2023-04-08T00:27:21;12.90;78.50
38784;DHT22;24531;45.502;12.238;2023-04-08T00:29:49;13.00;78.60
38784;DHT22;24531;45.502;12.238;2023-04-08T00:32:15;13.00;79.40
38784;DHT22;24531;45.502;12.238;2023-04-08T00:34:40;13.00;78.70
38784;DHT22;24531;45.502;12.238;2023-04-08T00:37:06;12.90;78.60
38784;DHT22;24531;45.502;12.238;2023-04-08T00:39:32;12.90;78.90
38784;DHT22;24531;45.502;12.238;2023-04-08T00:41:57;12.90;79.00
38784;DHT22;24531;45.502;12.238;2023-04-08T00:44:23;12.90;79.00
38784;DHT22;24531;45.502;12.238;2023-04-08T00:46:49;12.90;79.10
38784;DHT22;24531;45.502;12.238;2023-04-08T00:49:15;12.80;79.10
38784;DHT22;24531;45.502;12.238;2023-04-08T00:51:42;12.80;79.30
38784;DHT22;24531;45.502;12.238;2023-04-08T00:54:08;12.80;79.40
38784;DHT22;24531;45.502;12.238;2023-04-08T00:56:33;12.70;79.50
38784;DHT22;24531;45.502;12.238;2023-04-08T00:59:00;12.70;79.70
38784;DHT22;24531;45.502;12.238;2023-04-08T01:04:26;12.60;80.10
38784;DHT22;24531;45.502;12.238;2023-04-08T01:07:21;12.60;80.20
38784;DHT22;24531;45.502;12.238;2023-04-08T01:09:53;12.60;80.20
38784;DHT22;24531;45.502;12.238;2023-04-08T01:12:23;12.60;80.10
38784;DHT22;24531;45.502;12.238;2023-04-08T01:14:59;12.50;80.20
38784;DHT22;24531;45.502;12.238;2023-04-08T01:17:30;12.50;80.40
38784;DHT22;24531;45.502;12.238;2023-04-08T01:19:58;12.50;80.40
38784;DHT22;24531;45.502;12.238;2023-04-08T01:25:25;12.50;80.70
38784;DHT22;24531;45.502;12.238;2023-04-08T01:27:53;12.50;80.60
38784;DHT22;24531;45.502;12.238;2023-04-08T01:30:23;12.50;80.60
38784;DHT22;24531;45.502;12.238;2023-04-08T01:32:51;12.50;80.70
38784;DHT22;24531;45.502;12.238;2023-04-08T01:35:18;12.50;80.80
38784;DHT22;24531;45.502;12.238;2023-04-08T01:37:45;12.50;80.80
38784;DHT22;24531;45.502;12.238;2023-04-08T01:40:12;12.50;80.80
38784;DHT22;24531;45.502;12.238;2023-04-08T01:42:39;12.50;80.80
38784;DHT22;24531;45.502;12.238;2023-04-08T01:45:06;12.50;80.80
38784;DHT22;24531;45.502;12.238;2023-04-08T01:47:33;12.50;80.80
38784;DHT22;24531;45.502;12.238;2023-04-08T01:50:00;12.50;80.90
38784;DHT22;24531;45.502;12.238;2023-04-08T01:52:27;12.60;81.00
38784;DHT22;24531;45.502;12.238;2023-04-08T01:54:53;12.60;81.20
38784;DHT22;24531;45.502;12.238;2023-04-08T01:57:23;12.60;81.20
38784;DHT22;24531;45.502;12.238;2023-04-08T01:59:51;12.60;81.20
38784;DHT22;24531;45.502;12.238;2023-04-08T02:02:19;12.60;81.20
38784;DHT22;24531;45.502;12.238;2023-04-08T02:04:46;12.60;81.20
38784;DHT22;24531;45.502;12.238;2023-04-08T02:07:12;12.60;81.30
38784;DHT22;24531;45.502;12.238;2023-04-08T02:09:38;12.60;81.40
38784;DHT22;24531;45.502;12.238;2023-04-08T02:12:03;12.60;81.40
38784;DHT22;24531;45.502;12.238;2023-04-08T02:14:29;12.50;81.30
38784;DHT22;24531;45.502;12.238;2023-04-08T02:17:04;12.50;81.30
38784;DHT22;24531;45.502;12.238;2023-04-08T02:19:55;12.50;81.40
38784;DHT22;24531;45.502;12.238;2023-04-08T02:22:30;12.50;81.50
38784;DHT22;24531;45.502;12.238;2023-04-08T02:24:58;12.50;81.40
38784;DHT22;24531;45.502;12.238;2023-04-08T02:27:26;12.50;81.50
38784;DHT22;24531;45.502;12.238;2023-04-08T02:29:54;12.50;81.60
38784;DHT22;24531;45.502;12.238;2023-04-08T02:32:22;12.50;81.70
38784;DHT22;24531;45.502;12.238;2023-04-08T02:34:48;12.50;81.80
38784;DHT22;24531;45.502;12.238;2023-04-08T02:37:14;12.50;81.80
38784;DHT22;24531;45.502;12.238;2023-04-08T02:39:40;12.50;82.60
38784;DHT22;24531;45.502;12.238;2023-04-08T02:42:06;12.50;81.90
38784;DHT22;24531;45.502;12.238;2023-04-08T02:44:31;12.60;82.00
38784;DHT22;24531;45.502;12.238;2023-04-08T02:46:57;12.50;81.90
38784;DHT22;24531;45.502;12.238;2023-04-08T02:49:23;12.50;82.00
38784;DHT22;24531;45.502;12.238;2023-04-08T02:51:48;12.50;82.10
38784;DHT22;24531;45.502;12.238;2023-04-08T02:54:14;12.50;82.20
38784;DHT22;24531;45.502;12.238;2023-04-08T02:56:39;12.50;82.20
38784;DHT22;24531;45.502;12.238;2023-04-08T02:59:05;12.50;82.30
38784;DHT22;24531;45.502;12.238;2023-04-08T03:01:31;12.50;82.30
38784;DHT22;24531;45.502;12.238;2023-04-08T03:03:56;12.50;82.20
38784;DHT22;24531;45.502;12.238;2023-04-08T03:06:22;12.50;82.20
38784;DHT22;24531;45.502;12.238;2023-04-08T03:08:48;12.50;82.20
38784;DHT22;24531;45.502;12.238;2023-04-08T03:11:13;12.50;82.10
38784;DHT22;24531;45.502;12.238;2023-04-08T03:13:41;12.50;82.90
38784;DHT22;24531;45.502;12.238;2023-04-08T03:16:07;12.50;82.20
38784;DHT22;24531;45.502;12.238;2023-04-08T03:18:33;12.40;82.30
38784;DHT22;24531;45.502;12.238;2023-04-08T03:20:58;12.40;82.30
38784;DHT22;24531;45.502;12.238;2023-04-08T03:23:25;12.40;82.40
38784;DHT22;24531;45.502;12.238;2023-04-08T03:25:51;12.40;82.50
38784;DHT22;24531;45.502;12.238;2023-04-08T03:28:17;12.40;82.50
38784;DHT22;24531;45.502;12.238;2023-04-08T03:30:42;12.40;82.50
38784;DHT22;24531;45.502;12.238;2023-04-08T03:33:08;12.40;82.50
38784;DHT22;24531;45.502;12.238;2023-04-08T03:35:34;12.40;82.50
38784;DHT22;24531;45.502;12.238;2023-04-08T03:37:59;12.40;82.60
38784;DHT22;24531;45.502;12.238;2023-04-08T03:40:25;12.40;82.60
38784;DHT22;24531;45.502;12.238;2023-04-08T03:42:51;12.40;82.70
38784;DHT22;24531;45.502;12.238;2023-04-08T03:45:16;12.40;82.80
38784;DHT22;24531;45.502;12.238;2023-04-08T03:47:42;12.40;82.80
38784;DHT22;24531;45.502;12.238;2023-04-08T03:50:08;12.40;82.90
38784;DHT22;24531;45.502;12.238;2023-04-08T03:52:34;12.40;82.80
38784;DHT22;24531;45.502;12.238;2023-04-08T03:54:59;12.30;82.80
38784;DHT22;24531;45.502;12.238;2023-04-08T03:57:25;12.40;83.00
38784;DHT22;24531;45.502;12.238;2023-04-08T03:59:51;12.30;83.00
38784;DHT22;24531;45.502;12.238;2023-04-08T04:02:17;12.40;83.00
38784;DHT22;24531;45.502;12.238;2023-04-08T04:04:42;12.40;83.00
38784;DHT22;24531;45.502;12.238;2023-04-08T04:07:08;12.40;83.10
38784;DHT22;24531;45.502;12.238;2023-04-08T04:09:34;12.40;83.00
38784;DHT22;24531;45.502;12.238;2023-04-08T04:11:59;12.40;83.20
38784;DHT22;24531;45.502;12.238;2023-04-08T04:14:25;12.40;83.10
38784;DHT22;24531;45.502;12.238;2023-04-08T04:16:51;12.40;83.00
38784;DHT22;24531;45.502;12.238;2023-04-08T04:19:16;12.40;82.90
38784;DHT22;24531;45.502;12.238;2023-04-08T04:21:43;12.40;83.70
38784;DHT22;24531;45.502;12.238;2023-04-08T04:24:08;12.40;83.10
38784;DHT22;24531;45.502;12.238;2023-04-08T04:26:34;12.40;83.20
38784;DHT22;24531;45.502;12.238;2023-04-08T04:29:03;12.40;83.10
38784;DHT22;24531;45.502;12.238;2023-04-08T04:31:28;12.40;83.10
38784;DHT22;24531;45.502;12.238;2023-04-08T04:33:55;12.30;83.20
38784;DHT22;24531;45.502;12.238;2023-04-08T04:36:20;12.30;83.20
38784;DHT22;24531;45.502;12.238;2023-04-08T04:38:46;12.30;83.20
38784;DHT22;24531;45.502;12.238;2023-04-08T04:41:11;12.30;83.20
38784;DHT22;24531;45.502;12.238;2023-04-08T04:43:37;12.20;83.20
38784;DHT22;24531;45.502;12.238;2023-04-08T04:46:03;12.20;83.40
38784;DHT22;24531;45.502;12.238;2023-04-08T04:48:32;12.20;83.50
38784;DHT22;24531;45.502;12.238;2023-04-08T04:50:59;12.10;83.50
38784;DHT22;24531;45.502;12.238;2023-04-08T04:53:31;12.10;83.70
38784;DHT22;24531;45.502;12.238;2023-04-08T04:55:57;12.10;83.70
38784;DHT22;24531;45.502;12.238;2023-04-08T04:58:23;12.10;83.90
38784;DHT22;24531;45.502;12.238;2023-04-08T05:00:49;12.10;83.80
38784;DHT22;24531;45.502;12.238;2023-04-08T05:03:14;12.00;83.90
38784;DHT22;24531;45.502;12.238;2023-04-08T05:05:40;12.10;84.00
38784;DHT22;24531;45.502;12.238;2023-04-08T05:08:06;12.00;84.00
38784;DHT22;24531;45.502;12.238;2023-04-08T05:10:32;12.00;84.00
38784;DHT22;24531;45.502;12.238;2023-04-08T05:12:57;12.00;84.10
38784;DHT22;24531;45.502;12.238;2023-04-08T05:15:23;12.10;84.40
38784;DHT22;24531;45.502;12.238;2023-04-08T05:17:49;12.10;84.50
38784;DHT22;24531;45.502;12.238;2023-04-08T05:20:14;12.20;84.40
38784;DHT22;24531;45.502;12.238;2023-04-08T05:22:40;12.20;84.30
38784;DHT22;24531;45.502;12.238;2023-04-08T05:25:09;12.30;84.30
38784;DHT22;24531;45.502;12.238;2023-04-08T05:27:34;12.30;84.30
38784;DHT22;24531;45.502;12.238;2023-04-08T05:30:00;12.40;84.20
38784;DHT22;24531;45.502;12.238;2023-04-08T05:32:26;12.40;84.10
38784;DHT22;24531;45.502;12.238;2023-04-08T05:34:51;12.50;84.10
38784;DHT22;24531;45.502;12.238;2023-04-08T05:37:20;12.50;84.00
38784;DHT22;24531;45.502;12.238;2023-04-08T05:39:46;12.60;84.20
38784;DHT22;24531;45.502;12.238;2023-04-08T05:42:12;12.60;84.00
38784;DHT22;24531;45.502;12.238;2023-04-08T05:44:38;12.60;84.10
38784;DHT22;24531;45.502;12.238;2023-04-08T05:47:09;12.70;84.10
38784;DHT22;24531;45.502;12.238;2023-04-08T05:49:34;12.70;84.00
38784;DHT22;24531;45.502;12.238;2023-04-08T05:52:00;12.70;84.00
38784;DHT22;24531;45.502;12.238;2023-04-08T05:54:26;12.80;83.90
38784;DHT22;24531;45.502;12.238;2023-04-08T05:56:52;12.90;83.90
38784;DHT22;24531;45.502;12.238;2023-04-08T05:59:17;12.90;83.90
38784;DHT22;24531;45.502;12.238;2023-04-08T06:01:43;13.00;83.90
38784;DHT22;24531;45.502;12.238;2023-04-08T06:04:09;13.20;83.90
38784;DHT22;24531;45.502;12.238;2023-04-08T06:06:37;13.30;84.10
38784;DHT22;24531;45.502;12.238;2023-04-08T06:09:03;13.50;84.00
38784;DHT22;24531;45.502;12.238;2023-04-08T06:11:29;13.60;83.90
38784;DHT22;24531;45.502;12.238;2023-04-08T06:13:54;13.70;83.80
38784;DHT22;24531;45.502;12.238;2023-04-08T06:16:20;13.90;83.40
38784;DHT22;24531;45.502;12.238;2023-04-08T06:18:46;14.10;83.00
38784;DHT22;24531;45.502;12.238;2023-04-08T06:21:11;14.30;83.00
38784;DHT22;24531;45.502;12.238;2023-04-08T06:23:37;14.60;82.80
38784;DHT22;24531;45.502;12.238;2023-04-08T06:26:02;14.70;82.40
38784;DHT22;24531;45.502;12.238;2023-04-08T06:28:29;14.70;82.10
38784;DHT22;24531;45.502;12.238;2023-04-08T06:30:55;14.70;82.10
38784;DHT22;24531;45.502;12.238;2023-04-08T06:33:21;14.70;82.00
38784;DHT22;24531;45.502;12.238;2023-04-08T06:35:47;14.70;82.00
38784;DHT22;24531;45.502;12.238;2023-04-08T06:38:12;14.70;81.90
38784;DHT22;24531;45.502;12.238;2023-04-08T06:40:39;14.70;82.60
38784;DHT22;24531;45.502;12.238;2023-04-08T06:43:05;14.80;81.90
38784;DHT22;24531;45.502;12.238;2023-04-08T06:45:34;14.90;81.90
38784;DHT22;24531;45.502;12.238;2023-04-08T06:47:59;14.90;81.70
38784;DHT22;24531;45.502;12.238;2023-04-08T06:50:25;15.00;81.70
38784;DHT22;24531;45.502;12.238;2023-04-08T06:52:50;15.20;81.70
38784;DHT22;24531;45.502;12.238;2023-04-08T06:55:16;15.20;81.40
38784;DHT22;24531;45.502;12.238;2023-04-08T06:57:43;15.20;81.50
38784;DHT22;24531;45.502;12.238;2023-04-08T07:00:09;15.30;81.30
38784;DHT22;24531;45.502;12.238;2023-04-08T07:02:35;15.40;80.80
38784;DHT22;24531;45.502;12.238;2023-04-08T07:05:01;15.40;80.80
38784;DHT22;24531;45.502;12.238;2023-04-08T07:07:26;15.40;80.80
38784;DHT22;24531;45.502;12.238;2023-04-08T07:09:52;15.50;80.80
38784;DHT22;24531;45.502;12.238;2023-04-08T07:12:17;15.50;80.60
38784;DHT22;24531;45.502;12.238;2023-04-08T07:14:43;15.60;80.30
38784;DHT22;24531;45.502;12.238;2023-04-08T07:17:08;15.60;80.40
38784;DHT22;24531;45.502;12.238;2023-04-08T07:19:34;15.60;80.30
38784;DHT22;24531;45.502;12.238;2023-04-08T07:22:00;15.70;80.30
38784;DHT22;24531;45.502;12.238;2023-04-08T07:24:26;15.80;80.30
38784;DHT22;24531;45.502;12.238;2023-04-08T07:26:52;15.90;79.80
38784;DHT22;24531;45.502;12.238;2023-04-08T07:29:19;15.90;79.70
38784;DHT22;24531;45.502;12.238;2023-04-08T07:31:45;15.90;79.50
38784;DHT22;24531;45.502;12.238;2023-04-08T07:34:11;15.90;79.40
38784;DHT22;24531;45.502;12.238;2023-04-08T07:36:37;15.90;79.40
38784;DHT22;24531;45.502;12.238;2023-04-08T07:39:02;16.00;79.70
38784;DHT22;24531;45.502;12.238;2023-04-08T07:41:28;16.00;79.40
38784;DHT22;24531;45.502;12.238;2023-04-08T07:43:54;16.20;79.20
38784;DHT22;24531;45.502;12.238;2023-04-08T07:46:20;16.40;79.00
38784;DHT22;24531;45.502;12.238;2023-04-08T07:48:45;16.60;78.70
38784;DHT22;24531;45.502;12.238;2023-04-08T07:51:11;17.00;78.60
38784;DHT22;24531;45.502;12.238;2023-04-08T07:53:41;17.50;77.80
38784;DHT22;24531;45.502;12.238;2023-04-08T07:56:11;17.90;76.70
38784;DHT22;24531;45.502;12.238;2023-04-08T07:58:37;18.30;75.60
38784;DHT22;24531;45.502;12.238;2023-04-08T08:01:03;18.60;74.70
38784;DHT22;24531;45.502;12.238;2023-04-08T08:03:28;18.90;74.00
38784;DHT22;24531;45.502;12.238;2023-04-08T08:05:54;19.10;73.00
38784;DHT22;24531;45.502;12.238;2023-04-08T08:08:19;19.30;72.40
38784;DHT22;24531;45.502;12.238;2023-04-08T08:10:45;19.50;71.80
38784;DHT22;24531;45.502;12.238;2023-04-08T08:13:11;19.60;70.90
38784;DHT22;24531;45.502;12.238;2023-04-08T08:15:41;19.70;70.30
38784;DHT22;24531;45.502;12.238;2023-04-08T08:18:07;20.00;70.10
38784;DHT22;24531;45.502;12.238;2023-04-08T08:20:34;20.80;69.10
38784;DHT22;24531;45.502;12.238;2023-04-08T08:23:00;21.60;67.50
38784;DHT22;24531;45.502;12.238;2023-04-08T08:25:26;22.30;66.10
38784;DHT22;24531;45.502;12.238;2023-04-08T08:27:51;23.10;64.80
38784;DHT22;24531;45.502;12.238;2023-04-08T08:30:17;24.00;63.00
38784;DHT22;24531;45.502;12.238;2023-04-08T08:32:45;24.90;61.50
38784;DHT22;24531;45.502;12.238;2023-04-08T08:35:17;25.50;59.30
38784;DHT22;24531;45.502;12.238;2023-04-08T08:37:43;26.10;58.30
38784;DHT22;24531;45.502;12.238;2023-04-08T08:40:09;26.00;57.10
38784;DHT22;24531;45.502;12.238;2023-04-08T08:42:39;26.00;56.70
38784;DHT22;24531;45.502;12.238;2023-04-08T08:45:05;26.10;56.30
38784;DHT22;24531;45.502;12.238;2023-04-08T08:47:31;26.40;55.70
38784;DHT22;24531;45.502;12.238;2023-04-08T08:49:57;26.50;55.10
38784;DHT22;24531;45.502;12.238;2023-04-08T08:52:23;26.00;54.00
38784;DHT22;24531;45.502;12.238;2023-04-08T08:54:56;25.10;53.70
38784;DHT22;24531;45.502;12.238;2023-04-08T08:57:22;24.40;54.20
38784;DHT22;24531;45.502;12.238;2023-04-08T08:59:48;24.00;54.70
38784;DHT22;24531;45.502;12.238;2023-04-08T09:02:29;24.10;55.40
38784;DHT22;24531;45.502;12.238;2023-04-08T09:04:57;24.70;55.40
38784;DHT22;24531;45.502;12.238;2023-04-08T09:07:25;25.20;55.20
38784;DHT22;24531;45.502;12.238;2023-04-08T09:09:54;25.30;54.60
38784;DHT22;24531;45.502;12.238;2023-04-08T09:12:24;25.50;55.20
38784;DHT22;24531;45.502;12.238;2023-04-08T09:14:50;26.30;54.20
38784;DHT22;24531;45.502;12.238;2023-04-08T09:17:37;27.10;53.70
38784;DHT22;24531;45.502;12.238;2023-04-08T09:20:12;28.00;52.70
38784;DHT22;24531;45.502;12.238;2023-04-08T09:22:59;28.60;51.90
38784;DHT22;24531;45.502;12.238;2023-04-08T09:25:29;28.20;50.90
38784;DHT22;24531;45.502;12.238;2023-04-08T09:27:57;28.10;51.10
38784;DHT22;24531;45.502;12.238;2023-04-08T09:30:24;27.30;50.90
38784;DHT22;24531;45.502;12.238;2023-04-08T09:32:51;26.40;51.80
38784;DHT22;24531;45.502;12.238;2023-04-08T09:35:18;26.30;52.80
38784;DHT22;24531;45.502;12.238;2023-04-08T09:37:44;26.50;52.60
38784;DHT22;24531;45.502;12.238;2023-04-08T09:40:11;26.40;52.30
38784;DHT22;24531;45.502;12.238;2023-04-08T09:42:40;26.30;52.10
38784;DHT22;24531;45.502;12.238;2023-04-08T09:45:06;26.30;52.10
38784;DHT22;24531;45.502;12.238;2023-04-08T09:48:09;26.60;52.60
38784;DHT22;24531;45.502;12.238;2023-04-08T09:50:31;26.60;51.60
38784;DHT22;24531;45.502;12.238;2023-04-08T09:53:24;26.60;52.30
38784;DHT22;24531;45.502;12.238;2023-04-08T09:55:52;26.60;52.40
38784;DHT22;24531;45.502;12.238;2023-04-08T09:58:22;26.60;51.50
38784;DHT22;24531;45.502;12.238;2023-04-08T10:00:53;26.50;51.20
38784;DHT22;24531;45.502;12.238;2023-04-08T10:03:32;26.10;51.40
38784;DHT22;24531;45.502;12.238;2023-04-08T10:06:01;25.80;51.80
38784;DHT22;24531;45.502;12.238;2023-04-08T10:08:28;25.60;52.10
38784;DHT22;24531;45.502;12.238;2023-04-08T10:10:58;25.20;51.80
38784;DHT22;24531;45.502;12.238;2023-04-08T10:13:24;24.70;52.50
38784;DHT22;24531;45.502;12.238;2023-04-08T10:18:44;25.40;53.80
38784;DHT22;24531;45.502;12.238;2023-04-08T10:21:39;25.50;53.10
38784;DHT22;24531;45.502;12.238;2023-04-08T10:24:09;25.60;52.70
38784;DHT22;24531;45.502;12.238;2023-04-08T10:26:37;25.10;52.20
38784;DHT22;24531;45.502;12.238;2023-04-08T10:31:52;24.20;53.10
38784;DHT22;24531;45.502;12.238;2023-04-08T10:34:24;24.00;53.90
38784;DHT22;24531;45.502;12.238;2023-04-08T10:36:52;23.80;53.90
38784;DHT22;24531;45.502;12.238;2023-04-08T10:39:19;23.60;54.10
38784;DHT22;24531;45.502;12.238;2023-04-08T10:41:47;23.30;54.30
38784;DHT22;24531;45.502;12.238;2023-04-08T10:44:22;23.00;55.10
38784;DHT22;24531;45.502;12.238;2023-04-08T10:46:50;22.80;55.20
38784;DHT22;24531;45.502;12.238;2023-04-08T10:49:16;22.60;55.10
38784;DHT22;24531;45.502;12.238;2023-04-08T10:51:43;22.30;55.40
38784;DHT22;24531;45.502;12.238;2023-04-08T10:54:16;22.20;55.80
38784;DHT22;24531;45.502;12.238;2023-04-08T10:56:46;22.00;56.00
38784;DHT22;24531;45.502;12.238;2023-04-08T10:59:13;21.70;56.10
38784;DHT22;24531;45.502;12.238;2023-04-08T11:01:45;21.50;56.40
38784;DHT22;24531;45.502;12.238;2023-04-08T11:04:15;21.30;57.00
38784;DHT22;24531;45.502;12.238;2023-04-08T11:06:43;21.20;57.30
38784;DHT22;24531;45.502;12.238;2023-04-08T11:09:09;21.00;57.70
38784;DHT22;24531;45.502;12.238;2023-04-08T11:11:37;20.90;58.10
38784;DHT22;24531;45.502;12.238;2023-04-08T11:14:06;20.80;58.30
38784;DHT22;24531;45.502;12.238;2023-04-08T11:16:33;20.80;58.60
38784;DHT22;24531;45.502;12.238;2023-04-08T11:19:02;20.90;58.50
38784;DHT22;24531;45.502;12.238;2023-04-08T11:21:29;20.80;58.70
38784;DHT22;24531;45.502;12.238;2023-04-08T11:23:59;20.90;59.20
38784;DHT22;24531;45.502;12.238;2023-04-08T11:26:25;20.90;59.30
38784;DHT22;24531;45.502;12.238;2023-04-08T11:28:52;20.90;59.60
38784;DHT22;24531;45.502;12.238;2023-04-08T11:31:18;20.90;59.70
38784;DHT22;24531;45.502;12.238;2023-04-08T11:33:48;20.90;59.80
38784;DHT22;24531;45.502;12.238;2023-04-08T11:36:16;21.00;60.80
38784;DHT22;24531;45.502;12.238;2023-04-08T11:38:42;21.10;60.30
38784;DHT22;24531;45.502;12.238;2023-04-08T11:41:08;21.10;60.20
38784;DHT22;24531;45.502;12.238;2023-04-08T11:43:34;21.20;60.40
38784;DHT22;24531;45.502;12.238;2023-04-08T11:46:11;21.10;60.60
38784;DHT22;24531;45.502;12.238;2023-04-08T11:48:38;21.20;61.20
38784;DHT22;24531;45.502;12.238;2023-04-08T11:51:05;21.20;61.00
38784;DHT22;24531;45.502;12.238;2023-04-08T11:53:33;21.30;61.00
38784;DHT22;24531;45.502;12.238;2023-04-08T11:56:25;21.20;61.10
38784;DHT22;24531;45.502;12.238;2023-04-08T11:58:52;21.30;61.10
38784;DHT22;24531;45.502;12.238;2023-04-08T12:01:18;21.20;60.90
38784;DHT22;24531;45.502;12.238;2023-04-08T12:04:00;21.20;60.90
38784;DHT22;24531;45.502;12.238;2023-04-08T12:06:27;21.10;61.00
38784;DHT22;24531;45.502;12.238;2023-04-08T12:08:54;21.10;61.00
38784;DHT22;24531;45.502;12.238;2023-04-08T12:11:20;21.00;61.00
38784;DHT22;24531;45.502;12.238;2023-04-08T12:13:46;20.90;61.20
38784;DHT22;24531;45.502;12.238;2023-04-08T12:16:14;20.80;61.40
38784;DHT22;24531;45.502;12.238;2023-04-08T12:18:39;20.90;61.60
38784;DHT22;24531;45.502;12.238;2023-04-08T12:21:06;21.00;61.30
38784;DHT22;24531;45.502;12.238;2023-04-08T12:23:32;21.00;60.90
38784;DHT22;24531;45.502;12.238;2023-04-08T12:26:01;21.00;61.00
38784;DHT22;24531;45.502;12.238;2023-04-08T12:28:32;21.20;61.30
38784;DHT22;24531;45.502;12.238;2023-04-08T12:31:02;21.20;60.90
38784;DHT22;24531;45.502;12.238;2023-04-08T12:33:28;21.40;60.90
38784;DHT22;24531;45.502;12.238;2023-04-08T12:35:55;21.40;60.80
38784;DHT22;24531;45.502;12.238;2023-04-08T12:38:22;21.40;60.60
38784;DHT22;24531;45.502;12.238;2023-04-08T12:40:48;21.30;60.00
38784;DHT22;24531;45.502;12.238;2023-04-08T12:43:13;21.30;60.50
38784;DHT22;24531;45.502;12.238;2023-04-08T12:45:39;21.30;60.80
38784;DHT22;24531;45.502;12.238;2023-04-08T12:48:04;21.40;60.60
38784;DHT22;24531;45.502;12.238;2023-04-08T12:50:30;21.30;60.10
38784;DHT22;24531;45.502;12.238;2023-04-08T12:59:17;21.10;60.40
38784;DHT22;24531;45.502;12.238;2023-04-08T13:01:43;21.10;60.10
38784;DHT22;24531;45.502;12.238;2023-04-08T13:04:09;21.00;59.90
38784;DHT22;24531;45.502;12.238;2023-04-08T13:06:34;21.00;60.00
38784;DHT22;24531;45.502;12.238;2023-04-08T13:09:00;20.90;60.10
38784;DHT22;24531;45.502;12.238;2023-04-08T13:11:26;20.80;60.40
38784;DHT22;24531;45.502;12.238;2023-04-08T13:13:51;20.90;60.80
38784;DHT22;24531;45.502;12.238;2023-04-08T13:16:17;20.90;60.80
38784;DHT22;24531;45.502;12.238;2023-04-08T13:18:43;21.00;61.10
38784;DHT22;24531;45.502;12.238;2023-04-08T13:21:09;21.10;61.00
38784;DHT22;24531;45.502;12.238;2023-04-08T13:23:35;21.20;60.80
38784;DHT22;24531;45.502;12.238;2023-04-08T13:26:01;21.20;60.60
38784;DHT22;24531;45.502;12.238;2023-04-08T13:28:27;21.10;60.50
38784;DHT22;24531;45.502;12.238;2023-04-08T13:30:52;21.20;60.80
38784;DHT22;24531;45.502;12.238;2023-04-08T13:33:18;21.20;60.50
38784;DHT22;24531;45.502;12.238;2023-04-08T13:35:44;21.10;60.50
38784;DHT22;24531;45.502;12.238;2023-04-08T13:38:10;21.10;60.40
38784;DHT22;24531;45.502;12.238;2023-04-08T13:40:36;21.10;60.60
38784;DHT22;24531;45.502;12.238;2023-04-08T13:43:01;21.20;60.30
38784;DHT22;24531;45.502;12.238;2023-04-08T13:45:27;21.20;60.20
38784;DHT22;24531;45.502;12.238;2023-04-08T13:47:53;21.30;60.90
38784;DHT22;24531;45.502;12.238;2023-04-08T13:50:19;21.30;59.70
38784;DHT22;24531;45.502;12.238;2023-04-08T13:52:44;21.30;59.40
38784;DHT22;24531;45.502;12.238;2023-04-08T13:55:10;21.30;59.30
38784;DHT22;24531;45.502;12.238;2023-04-08T13:57:36;21.30;59.00
38784;DHT22;24531;45.502;12.238;2023-04-08T14:00:02;21.30;58.90
38784;DHT22;24531;45.502;12.238;2023-04-08T14:02:28;21.40;58.50
38784;DHT22;24531;45.502;12.238;2023-04-08T14:04:53;21.30;58.10
38784;DHT22;24531;45.502;12.238;2023-04-08T14:07:19;21.30;57.70
38784;DHT22;24531;45.502;12.238;2023-04-08T14:09:45;21.40;57.30
38784;DHT22;24531;45.502;12.238;2023-04-08T14:12:10;21.30;56.80
38784;DHT22;24531;45.502;12.238;2023-04-08T14:14:36;21.30;57.10
38784;DHT22;24531;45.502;12.238;2023-04-08T14:17:01;21.30;57.20
38784;DHT22;24531;45.502;12.238;2023-04-08T14:19:27;21.40;57.00
38784;DHT22;24531;45.502;12.238;2023-04-08T14:21:53;21.30;56.80
38784;DHT22;24531;45.502;12.238;2023-04-08T14:24:18;21.20;56.80
38784;DHT22;24531;45.502;12.238;2023-04-08T14:26:44;21.00;56.60
38784;DHT22;24531;45.502;12.238;2023-04-08T14:29:10;20.90;56.70
38784;DHT22;24531;45.502;12.238;2023-04-08T14:31:36;20.70;56.60
38784;DHT22;24531;45.502;12.238;2023-04-08T14:34:01;20.50;56.70
38784;DHT22;24531;45.502;12.238;2023-04-08T14:36:27;20.40;56.80
38784;DHT22;24531;45.502;12.238;2023-04-08T14:38:54;20.30;56.80
38784;DHT22;24531;45.502;12.238;2023-04-08T14:41:20;20.10;57.00
38784;DHT22;24531;45.502;12.238;2023-04-08T14:43:46;20.00;57.00
38784;DHT22;24531;45.502;12.238;2023-04-08T14:46:11;20.00;57.00
38784;DHT22;24531;45.502;12.238;2023-04-08T14:48:37;19.90;57.10
38784;DHT22;24531;45.502;12.238;2023-04-08T14:51:03;19.90;57.10
38784;DHT22;24531;45.502;12.238;2023-04-08T14:53:28;19.90;57.10
38784;DHT22;24531;45.502;12.238;2023-04-08T14:55:54;19.90;57.00
38784;DHT22;24531;45.502;12.238;2023-04-08T14:58:20;19.80;57.00
38784;DHT22;24531;45.502;12.238;2023-04-08T15:00:45;19.70;57.40
38784;DHT22;24531;45.502;12.238;2023-04-08T15:03:13;19.70;57.60
38784;DHT22;24531;45.502;12.238;2023-04-08T15:05:38;19.70;57.90
38784;DHT22;24531;45.502;12.238;2023-04-08T15:08:04;19.60;58.10
38784;DHT22;24531;45.502;12.238;2023-04-08T15:10:30;19.60;58.30
38784;DHT22;24531;45.502;12.238;2023-04-08T15:12:56;19.60;58.50
38784;DHT22;24531;45.502;12.238;2023-04-08T15:15:22;19.60;58.60
38784;DHT22;24531;45.502;12.238;2023-04-08T15:17:47;19.60;58.60
38784;DHT22;24531;45.502;12.238;2023-04-08T15:20:13;19.50;58.50
38784;DHT22;24531;45.502;12.238;2023-04-08T15:22:38;19.40;58.80
38784;DHT22;24531;45.502;12.238;2023-04-08T15:25:05;19.30;59.00
38784;DHT22;24531;45.502;12.238;2023-04-08T15:27:31;19.30;59.20
38784;DHT22;24531;45.502;12.238;2023-04-08T15:29:57;19.20;59.90
38784;DHT22;24531;45.502;12.238;2023-04-08T15:32:23;19.10;59.40